sensor_id;sensor_type;location;lat;lon;timestamp;P1;durP1;ratioP1;P2;durP2;ratioP2
20056;SDS011;10189;49.546;7.906;2024-01-30T00:02:14;36.42;;;24.20;;
20056;SDS011;10189;49.546;7.906;2024-01-30T00:04:39;34.83;;;23.48;;
20056;SDS011;10189;49.546;7.906;2024-01-30T00:07:05;39.22;;;22.75;;
20056;SDS011;10189;49.546;7.906;2024-01-30T00:09:31;29.95;;;21.35;;
20056;SDS011;10189;49.546;7.906;2024-01-30T00:11:57;36.42;;;22.70;;
20056;SDS011;10189;49.546;7.906;2024-01-30T00:14:23;34.38;;;22.95;;
20056;SDS011;10189;49.546;7.906;2024-01-30T00:16:50;34.17;;;22.60;;
20056;SDS011;10189;49.546;7.906;2024-01-30T00:19:17;38.25;;;26.05;;
20056;SDS011;10189;49.546;7.906;2024-01-30T00:21:43;34.10;;;23.48;;
20056;SDS011;10189;49.546;7.906;2024-01-30T00:24:08;39.53;;;24.63;;
20056;SDS011;10189;49.546;7.906;2024-01-30T00:26:34;34.70;;;22.48;;
20056;SDS011;10189;49.546;7.906;2024-01-30T00:29:00;31.20;;;21.27;;
20056;SDS011;10189;49.546;7.906;2024-01-30T00:31:27;29.60;;;20.25;;
20056;SDS011;10189;49.546;7.906;2024-01-30T00:33:53;32.47;;;20.45;;
20056;SDS011;10189;49.546;7.906;2024-01-30T00:36:19;31.17;;;22.00;;
20056;SDS011;10189;49.546;7.906;2024-01-30T00:38:44;33.97;;;21.15;;
20056;SDS011;10189;49.546;7.906;2024-01-30T00:41:10;31.95;;;20.17;;
20056;SDS011;10189;49.546;7.906;2024-01-30T00:43:36;38.63;;;20.80;;
20056;SDS011;10189;49.546;7.906;2024-01-30T00:46:03;31.30;;;21.20;;
20056;SDS011;10189;49.546;7.906;2024-01-30T00:48:29;27.25;;;17.98;;
20056;SDS011;10189;49.546;7.906;2024-01-30T00:50:54;27.98;;;18.45;;
20056;SDS011;10189;49.546;7.906;2024-01-30T00:53:20;27.90;;;17.38;;
20056;SDS011;10189;49.546;7.906;2024-01-30T00:55:46;35.83;;;22.85;;
20056;SDS011;10189;49.546;7.906;2024-01-30T00:58:13;26.20;;;18.50;;
20056;SDS011;10189;49.546;7.906;2024-01-30T01:00:39;27.60;;;18.42;;
20056;SDS011;10189;49.546;7.906;2024-01-30T01:03:04;27.00;;;17.17;;
20056;SDS011;10189;49.546;7.906;2024-01-30T01:05:30;34.75;;;20.25;;
20056;SDS011;10189;49.546;7.906;2024-01-30T01:07:56;33.28;;;22.75;;
20056;SDS011;10189;49.546;7.906;2024-01-30T01:10:22;28.77;;;18.67;;
20056;SDS011;10189;49.546;7.906;2024-01-30T01:12:48;33.65;;;20.17;;
20056;SDS011;10189;49.546;7.906;2024-01-30T01:15:14;35.25;;;23.70;;
20056;SDS011;10189;49.546;7.906;2024-01-30T01:17:40;26.13;;;18.13;;
20056;SDS011;10189;49.546;7.906;2024-01-30T01:20:07;27.42;;;17.30;;
20056;SDS011;10189;49.546;7.906;2024-01-30T01:22:33;33.15;;;22.60;;
20056;SDS011;10189;49.546;7.906;2024-01-30T01:25:00;36.33;;;24.23;;
20056;SDS011;10189;49.546;7.906;2024-01-30T01:27:26;62.13;;;40.70;;
20056;SDS011;10189;49.546;7.906;2024-01-30T01:29:53;73.75;;;51.03;;
20056;SDS011;10189;49.546;7.906;2024-01-30T01:32:19;64.60;;;40.63;;
20056;SDS011;10189;49.546;7.906;2024-01-30T01:34:45;58.72;;;38.45;;
20056;SDS011;10189;49.546;7.906;2024-01-30T01:37:11;45.38;;;29.70;;
20056;SDS011;10189;49.546;7.906;2024-01-30T01:39:37;51.38;;;32.97;;
20056;SDS011;10189;49.546;7.906;2024-01-30T01:42:03;41.63;;;28.20;;
20056;SDS011;10189;49.546;7.906;2024-01-30T01:44:29;47.10;;;31.70;;
20056;SDS011;10189;49.546;7.906;2024-01-30T01:46:55;52.35;;;35.22;;
20056;SDS011;10189;49.546;7.906;2024-01-30T01:49:24;46.75;;;31.13;;
20056;SDS011;10189;49.546;7.906;2024-01-30T01:51:53;44.00;;;28.20;;
20056;SDS011;10189;49.546;7.906;2024-01-30T01:54:21;42.08;;;28.00;;
20056;SDS011;10189;49.546;7.906;2024-01-30T01:56:50;48.83;;;29.63;;
20056;SDS011;10189;49.546;7.906;2024-01-30T01:59:18;43.05;;;28.08;;
20056;SDS011;10189;49.546;7.906;2024-01-30T02:01:47;38.38;;;26.85;;
20056;SDS011;10189;49.546;7.906;2024-01-30T02:04:16;44.40;;;29.42;;
20056;SDS011;10189;49.546;7.906;2024-01-30T02:06:43;45.03;;;29.35;;
20056;SDS011;10189;49.546;7.906;2024-01-30T02:09:09;38.63;;;25.23;;
20056;SDS011;10189;49.546;7.906;2024-01-30T02:11:35;36.30;;;25.25;;
20056;SDS011;10189;49.546;7.906;2024-01-30T02:14:02;40.10;;;25.65;;
20056;SDS011;10189;49.546;7.906;2024-01-30T02:16:29;43.50;;;27.98;;
20056;SDS011;10189;49.546;7.906;2024-01-30T02:18:56;41.17;;;28.35;;
20056;SDS011;10189;49.546;7.906;2024-01-30T02:21:22;52.97;;;32.92;;
20056;SDS011;10189;49.546;7.906;2024-01-30T02:23:48;74.43;;;48.42;;
20056;SDS011;10189;49.546;7.906;2024-01-30T02:26:15;70.40;;;43.20;;
20056;SDS011;10189;49.546;7.906;2024-01-30T02:28:41;63.10;;;43.45;;
20056;SDS011;10189;49.546;7.906;2024-01-30T02:31:07;63.10;;;42.67;;
20056;SDS011;10189;49.546;7.906;2024-01-30T02:33:33;61.28;;;41.20;;
20056;SDS011;10189;49.546;7.906;2024-01-30T02:35:59;65.05;;;39.67;;
20056;SDS011;10189;49.546;7.906;2024-01-30T02:38:25;54.63;;;36.90;;
20056;SDS011;10189;49.546;7.906;2024-01-30T02:40:54;62.92;;;39.35;;
20056;SDS011;10189;49.546;7.906;2024-01-30T02:43:21;52.50;;;35.60;;
20056;SDS011;10189;49.546;7.906;2024-01-30T02:45:47;59.10;;;37.72;;
20056;SDS011;10189;49.546;7.906;2024-01-30T02:48:13;53.92;;;35.30;;
20056;SDS011;10189;49.546;7.906;2024-01-30T02:50:39;55.80;;;36.22;;
20056;SDS011;10189;49.546;7.906;2024-01-30T02:53:05;49.17;;;32.05;;
20056;SDS011;10189;49.546;7.906;2024-01-30T02:55:31;43.47;;;29.88;;
20056;SDS011;10189;49.546;7.906;2024-01-30T02:57:57;43.72;;;29.40;;
20056;SDS011;10189;49.546;7.906;2024-01-30T03:00:23;46.10;;;29.08;;
20056;SDS011;10189;49.546;7.906;2024-01-30T03:02:49;42.63;;;27.50;;
20056;SDS011;10189;49.546;7.906;2024-01-30T03:05:15;40.78;;;26.55;;
20056;SDS011;10189;49.546;7.906;2024-01-30T03:07:40;42.53;;;26.70;;
20056;SDS011;10189;49.546;7.906;2024-01-30T03:10:06;39.42;;;24.85;;
20056;SDS011;10189;49.546;7.906;2024-01-30T03:12:33;40.72;;;24.70;;
20056;SDS011;10189;49.546;7.906;2024-01-30T03:14:58;38.95;;;24.17;;
20056;SDS011;10189;49.546;7.906;2024-01-30T03:17:24;36.72;;;23.70;;
20056;SDS011;10189;49.546;7.906;2024-01-30T03:19:50;40.60;;;23.65;;
20056;SDS011;10189;49.546;7.906;2024-01-30T03:22:16;34.05;;;23.67;;
20056;SDS011;10189;49.546;7.906;2024-01-30T03:24:42;32.40;;;21.38;;
20056;SDS011;10189;49.546;7.906;2024-01-30T03:27:09;35.20;;;22.45;;
20056;SDS011;10189;49.546;7.906;2024-01-30T03:29:35;35.05;;;22.05;;
20056;SDS011;10189;49.546;7.906;2024-01-30T03:32:01;33.72;;;22.52;;
20056;SDS011;10189;49.546;7.906;2024-01-30T03:34:27;32.45;;;21.70;;
20056;SDS011;10189;49.546;7.906;2024-01-30T03:36:53;34.05;;;23.38;;
20056;SDS011;10189;49.546;7.906;2024-01-30T03:39:19;44.65;;;26.88;;
20056;SDS011;10189;49.546;7.906;2024-01-30T03:41:45;42.38;;;25.67;;
20056;SDS011;10189;49.546;7.906;2024-01-30T03:44:11;44.92;;;29.08;;
20056;SDS011;10189;49.546;7.906;2024-01-30T03:46:36;41.75;;;29.63;;
20056;SDS011;10189;49.546;7.906;2024-01-30T03:49:02;51.22;;;33.60;;
20056;SDS011;10189;49.546;7.906;2024-01-30T03:51:28;40.90;;;27.63;;
20056;SDS011;10189;49.546;7.906;2024-01-30T03:53:54;43.97;;;30.85;;
20056;SDS011;10189;49.546;7.906;2024-01-30T03:56:21;41.30;;;27.67;;
20056;SDS011;10189;49.546;7.906;2024-01-30T03:58:46;39.35;;;25.08;;
20056;SDS011;10189;49.546;7.906;2024-01-30T04:01:13;35.80;;;23.98;;
20056;SDS011;10189;49.546;7.906;2024-01-30T04:03:40;30.70;;;20.52;;
20056;SDS011;10189;49.546;7.906;2024-01-30T04:06:07;34.10;;;23.55;;
20056;SDS011;10189;49.546;7.906;2024-01-30T04:08:33;35.20;;;24.13;;
20056;SDS011;10189;49.546;7.906;2024-01-30T04:11:03;35.53;;;22.85;;
20056;SDS011;10189;49.546;7.906;2024-01-30T04:13:32;31.27;;;21.52;;
20056;SDS011;10189;49.546;7.906;2024-01-30T04:15:59;31.20;;;19.77;;
20056;SDS011;10189;49.546;7.906;2024-01-30T04:18:28;33.17;;;20.33;;
20056;SDS011;10189;49.546;7.906;2024-01-30T04:20:54;34.63;;;20.60;;
20056;SDS011;10189;49.546;7.906;2024-01-30T04:23:20;34.30;;;20.33;;
20056;SDS011;10189;49.546;7.906;2024-01-30T04:25:46;31.60;;;19.27;;
20056;SDS011;10189;49.546;7.906;2024-01-30T04:28:12;31.27;;;20.35;;
20056;SDS011;10189;49.546;7.906;2024-01-30T04:30:39;32.80;;;20.42;;
20056;SDS011;10189;49.546;7.906;2024-01-30T04:33:05;32.95;;;21.45;;
20056;SDS011;10189;49.546;7.906;2024-01-30T04:35:31;35.38;;;21.88;;
20056;SDS011;10189;49.546;7.906;2024-01-30T04:37:57;31.73;;;19.80;;
20056;SDS011;10189;49.546;7.906;2024-01-30T04:40:23;29.88;;;19.40;;
20056;SDS011;10189;49.546;7.906;2024-01-30T04:42:49;29.92;;;19.10;;
20056;SDS011;10189;49.546;7.906;2024-01-30T04:45:15;27.60;;;17.35;;
20056;SDS011;10189;49.546;7.906;2024-01-30T04:47:41;28.95;;;20.15;;
20056;SDS011;10189;49.546;7.906;2024-01-30T04:50:07;29.20;;;18.20;;
20056;SDS011;10189;49.546;7.906;2024-01-30T04:52:33;28.45;;;18.17;;
20056;SDS011;10189;49.546;7.906;2024-01-30T04:55:00;27.63;;;18.80;;
20056;SDS011;10189;49.546;7.906;2024-01-30T04:57:26;27.33;;;18.27;;
20056;SDS011;10189;49.546;7.906;2024-01-30T04:59:52;28.67;;;19.35;;
20056;SDS011;10189;49.546;7.906;2024-01-30T05:02:18;23.20;;;17.42;;
20056;SDS011;10189;49.546;7.906;2024-01-30T05:04:44;25.45;;;17.35;;
20056;SDS011;10189;49.546;7.906;2024-01-30T05:07:10;27.58;;;17.73;;
20056;SDS011;10189;49.546;7.906;2024-01-30T05:09:36;21.13;;;14.38;;
20056;SDS011;10189;49.546;7.906;2024-01-30T05:12:02;20.98;;;14.65;;
20056;SDS011;10189;49.546;7.906;2024-01-30T05:14:28;19.92;;;13.48;;
20056;SDS011;10189;49.546;7.906;2024-01-30T05:16:54;18.67;;;11.85;;
20056;SDS011;10189;49.546;7.906;2024-01-30T05:19:20;18.95;;;12.68;;
20056;SDS011;10189;49.546;7.906;2024-01-30T05:21:48;18.20;;;12.40;;
20056;SDS011;10189;49.546;7.906;2024-01-30T05:24:15;19.30;;;13.20;;
20056;SDS011;10189;49.546;7.906;2024-01-30T05:26:41;18.75;;;13.30;;
20056;SDS011;10189;49.546;7.906;2024-01-30T05:29:07;22.55;;;14.70;;
20056;SDS011;10189;49.546;7.906;2024-01-30T05:31:33;20.58;;;14.60;;
20056;SDS011;10189;49.546;7.906;2024-01-30T05:34:00;23.15;;;16.17;;
20056;SDS011;10189;49.546;7.906;2024-01-30T05:36:26;27.92;;;17.02;;
20056;SDS011;10189;49.546;7.906;2024-01-30T05:38:52;22.15;;;15.32;;
20056;SDS011;10189;49.546;7.906;2024-01-30T05:41:18;28.40;;;18.50;;
20056;SDS011;10189;49.546;7.906;2024-01-30T05:43:46;18.17;;;13.02;;
20056;SDS011;10189;49.546;7.906;2024-01-30T05:46:12;18.23;;;13.30;;
20056;SDS011;10189;49.546;7.906;2024-01-30T05:48:37;19.27;;;14.30;;
20056;SDS011;10189;49.546;7.906;2024-01-30T05:51:03;20.60;;;11.80;;
20056;SDS011;10189;49.546;7.906;2024-01-30T05:53:30;19.52;;;13.68;;
20056;SDS011;10189;49.546;7.906;2024-01-30T05:55:56;18.73;;;13.45;;
20056;SDS011;10189;49.546;7.906;2024-01-30T05:58:21;18.42;;;12.40;;
20056;SDS011;10189;49.546;7.906;2024-01-30T06:00:47;17.02;;;12.02;;
20056;SDS011;10189;49.546;7.906;2024-01-30T06:03:13;16.13;;;11.57;;
20056;SDS011;10189;49.546;7.906;2024-01-30T06:05:39;15.60;;;10.70;;
20056;SDS011;10189;49.546;7.906;2024-01-30T06:08:05;14.88;;;11.07;;
20056;SDS011;10189;49.546;7.906;2024-01-30T06:10:31;17.08;;;10.40;;
20056;SDS011;10189;49.546;7.906;2024-01-30T06:12:57;14.57;;;10.02;;
20056;SDS011;10189;49.546;7.906;2024-01-30T06:15:23;12.82;;;9.82;;
20056;SDS011;10189;49.546;7.906;2024-01-30T06:17:49;17.48;;;12.77;;
20056;SDS011;10189;49.546;7.906;2024-01-30T06:20:15;16.05;;;11.68;;
20056;SDS011;10189;49.546;7.906;2024-01-30T06:22:41;14.10;;;11.02;;
20056;SDS011;10189;49.546;7.906;2024-01-30T06:25:07;31.52;;;21.70;;
20056;SDS011;10189;49.546;7.906;2024-01-30T06:27:33;16.33;;;11.43;;
20056;SDS011;10189;49.546;7.906;2024-01-30T06:29:59;16.05;;;11.13;;
20056;SDS011;10189;49.546;7.906;2024-01-30T06:32:25;15.50;;;11.13;;
20056;SDS011;10189;49.546;7.906;2024-01-30T06:34:50;16.65;;;10.95;;
20056;SDS011;10189;49.546;7.906;2024-01-30T06:37:16;19.15;;;13.60;;
20056;SDS011;10189;49.546;7.906;2024-01-30T06:39:42;15.02;;;11.15;;
20056;SDS011;10189;49.546;7.906;2024-01-30T06:42:09;18.33;;;13.60;;
20056;SDS011;10189;49.546;7.906;2024-01-30T06:44:34;47.80;;;36.22;;
20056;SDS011;10189;49.546;7.906;2024-01-30T06:47:01;32.35;;;26.98;;
20056;SDS011;10189;49.546;7.906;2024-01-30T06:49:27;43.80;;;35.42;;
20056;SDS011;10189;49.546;7.906;2024-01-30T06:51:52;34.45;;;26.38;;
20056;SDS011;10189;49.546;7.906;2024-01-30T06:54:18;22.02;;;15.93;;
20056;SDS011;10189;49.546;7.906;2024-01-30T06:56:44;13.98;;;9.52;;
20056;SDS011;10189;49.546;7.906;2024-01-30T06:59:10;16.27;;;11.18;;
20056;SDS011;10189;49.546;7.906;2024-01-30T07:01:36;13.68;;;9.73;;
20056;SDS011;10189;49.546;7.906;2024-01-30T07:04:02;17.60;;;9.88;;
20056;SDS011;10189;49.546;7.906;2024-01-30T07:06:28;18.05;;;12.45;;
20056;SDS011;10189;49.546;7.906;2024-01-30T07:08:54;16.02;;;11.95;;
20056;SDS011;10189;49.546;7.906;2024-01-30T07:11:20;15.00;;;9.65;;
20056;SDS011;10189;49.546;7.906;2024-01-30T07:13:48;13.07;;;10.18;;
20056;SDS011;10189;49.546;7.906;2024-01-30T07:16:14;13.77;;;9.25;;
20056;SDS011;10189;49.546;7.906;2024-01-30T07:18:40;15.82;;;11.73;;
20056;SDS011;10189;49.546;7.906;2024-01-30T07:21:06;17.23;;;13.95;;
20056;SDS011;10189;49.546;7.906;2024-01-30T07:23:32;17.20;;;13.75;;
20056;SDS011;10189;49.546;7.906;2024-01-30T07:26:00;17.23;;;14.05;;
20056;SDS011;10189;49.546;7.906;2024-01-30T07:28:27;18.33;;;14.00;;
20056;SDS011;10189;49.546;7.906;2024-01-30T07:30:53;16.83;;;10.70;;
20056;SDS011;10189;49.546;7.906;2024-01-30T07:33:19;12.73;;;9.60;;
20056;SDS011;10189;49.546;7.906;2024-01-30T07:35:45;16.00;;;10.73;;
20056;SDS011;10189;49.546;7.906;2024-01-30T07:38:14;11.60;;;9.27;;
20056;SDS011;10189;49.546;7.906;2024-01-30T07:40:40;13.98;;;11.07;;
20056;SDS011;10189;49.546;7.906;2024-01-30T07:43:06;14.00;;;9.45;;
20056;SDS011;10189;49.546;7.906;2024-01-30T07:45:32;13.60;;;9.48;;
20056;SDS011;10189;49.546;7.906;2024-01-30T07:47:58;16.92;;;14.27;;
20056;SDS011;10189;49.546;7.906;2024-01-30T07:50:25;15.07;;;10.63;;
20056;SDS011;10189;49.546;7.906;2024-01-30T07:52:51;20.80;;;12.95;;
20056;SDS011;10189;49.546;7.906;2024-01-30T07:55:20;22.15;;;14.93;;
20056;SDS011;10189;49.546;7.906;2024-01-30T07:57:51;16.95;;;12.60;;
20056;SDS011;10189;49.546;7.906;2024-01-30T08:00:18;30.05;;;20.13;;
20056;SDS011;10189;49.546;7.906;2024-01-30T08:02:45;27.55;;;18.95;;
20056;SDS011;10189;49.546;7.906;2024-01-30T08:05:11;26.00;;;18.40;;
20056;SDS011;10189;49.546;7.906;2024-01-30T08:07:37;41.83;;;26.58;;
20056;SDS011;10189;49.546;7.906;2024-01-30T08:10:03;18.70;;;13.13;;
20056;SDS011;10189;49.546;7.906;2024-01-30T08:12:29;18.27;;;11.80;;
20056;SDS011;10189;49.546;7.906;2024-01-30T08:14:55;24.98;;;15.55;;
20056;SDS011;10189;49.546;7.906;2024-01-30T08:17:21;15.00;;;10.50;;
20056;SDS011;10189;49.546;7.906;2024-01-30T08:19:47;12.15;;;8.35;;
20056;SDS011;10189;49.546;7.906;2024-01-30T08:22:12;15.45;;;11.00;;
20056;SDS011;10189;49.546;7.906;2024-01-30T08:24:39;24.20;;;14.10;;
20056;SDS011;10189;49.546;7.906;2024-01-30T08:27:06;61.40;;;34.83;;
20056;SDS011;10189;49.546;7.906;2024-01-30T08:29:35;53.35;;;32.05;;
20056;SDS011;10189;49.546;7.906;2024-01-30T08:32:01;38.15;;;22.40;;
20056;SDS011;10189;49.546;7.906;2024-01-30T08:34:29;24.40;;;15.82;;
20056;SDS011;10189;49.546;7.906;2024-01-30T08:36:54;23.75;;;15.40;;
20056;SDS011;10189;49.546;7.906;2024-01-30T08:39:20;34.75;;;23.27;;
20056;SDS011;10189;49.546;7.906;2024-01-30T08:41:46;32.08;;;20.27;;
20056;SDS011;10189;49.546;7.906;2024-01-30T08:44:12;23.00;;;15.75;;
20056;SDS011;10189;49.546;7.906;2024-01-30T08:46:38;18.60;;;12.82;;
20056;SDS011;10189;49.546;7.906;2024-01-30T08:49:04;24.60;;;16.15;;
20056;SDS011;10189;49.546;7.906;2024-01-30T08:51:30;19.02;;;14.23;;
20056;SDS011;10189;49.546;7.906;2024-01-30T08:53:56;15.93;;;11.85;;
20056;SDS011;10189;49.546;7.906;2024-01-30T08:56:22;16.90;;;10.70;;
20056;SDS011;10189;49.546;7.906;2024-01-30T08:58:48;15.65;;;11.15;;
20056;SDS011;10189;49.546;7.906;2024-01-30T09:01:14;12.35;;;8.93;;
20056;SDS011;10189;49.546;7.906;2024-01-30T09:03:40;9.40;;;8.02;;
20056;SDS011;10189;49.546;7.906;2024-01-30T09:06:09;10.68;;;8.43;;
20056;SDS011;10189;49.546;7.906;2024-01-30T09:08:35;17.77;;;11.75;;
20056;SDS011;10189;49.546;7.906;2024-01-30T09:11:02;13.63;;;9.88;;
20056;SDS011;10189;49.546;7.906;2024-01-30T09:13:35;12.57;;;9.10;;
20056;SDS011;10189;49.546;7.906;2024-01-30T09:16:02;16.52;;;9.43;;
20056;SDS011;10189;49.546;7.906;2024-01-30T09:18:28;13.35;;;9.45;;
20056;SDS011;10189;49.546;7.906;2024-01-30T09:20:54;9.65;;;8.23;;
20056;SDS011;10189;49.546;7.906;2024-01-30T09:23:20;10.18;;;8.32;;
20056;SDS011;10189;49.546;7.906;2024-01-30T09:25:47;10.73;;;8.63;;
20056;SDS011;10189;49.546;7.906;2024-01-30T09:28:13;11.02;;;8.55;;
20056;SDS011;10189;49.546;7.906;2024-01-30T09:30:39;12.55;;;8.63;;
20056;SDS011;10189;49.546;7.906;2024-01-30T09:33:06;10.48;;;8.43;;
20056;SDS011;10189;49.546;7.906;2024-01-30T09:35:32;12.43;;;8.82;;
20056;SDS011;10189;49.546;7.906;2024-01-30T09:37:58;14.18;;;10.07;;
20056;SDS011;10189;49.546;7.906;2024-01-30T09:40:24;15.13;;;12.30;;
20056;SDS011;10189;49.546;7.906;2024-01-30T09:42:50;13.73;;;11.90;;
20056;SDS011;10189;49.546;7.906;2024-01-30T09:45:19;15.75;;;12.07;;
20056;SDS011;10189;49.546;7.906;2024-01-30T09:47:50;18.95;;;12.98;;
20056;SDS011;10189;49.546;7.906;2024-01-30T09:50:16;23.58;;;19.20;;
20056;SDS011;10189;49.546;7.906;2024-01-30T09:52:44;28.02;;;21.73;;
20056;SDS011;10189;49.546;7.906;2024-01-30T09:55:15;12.90;;;8.85;;
20056;SDS011;10189;49.546;7.906;2024-01-30T09:57:41;12.32;;;8.85;;
20056;SDS011;10189;49.546;7.906;2024-01-30T10:00:08;10.63;;;8.30;;
20056;SDS011;10189;49.546;7.906;2024-01-30T10:02:38;13.38;;;10.32;;
20056;SDS011;10189;49.546;7.906;2024-01-30T10:05:06;16.55;;;13.25;;
20056;SDS011;10189;49.546;7.906;2024-01-30T10:07:33;14.50;;;10.10;;
20056;SDS011;10189;49.546;7.906;2024-01-30T10:09:59;13.43;;;10.82;;
20056;SDS011;10189;49.546;7.906;2024-01-30T10:12:26;21.20;;;15.20;;
20056;SDS011;10189;49.546;7.906;2024-01-30T10:14:55;12.95;;;10.27;;
20056;SDS011;10189;49.546;7.906;2024-01-30T10:17:24;21.30;;;15.77;;
20056;SDS011;10189;49.546;7.906;2024-01-30T10:19:52;11.05;;;8.45;;
20056;SDS011;10189;49.546;7.906;2024-01-30T10:22:18;10.23;;;8.10;;
20056;SDS011;10189;49.546;7.906;2024-01-30T10:24:44;10.27;;;8.65;;
20056;SDS011;10189;49.546;7.906;2024-01-30T10:27:10;12.15;;;9.80;;
20056;SDS011;10189;49.546;7.906;2024-01-30T10:29:37;24.15;;;21.75;;
20056;SDS011;10189;49.546;7.906;2024-01-30T10:32:03;20.65;;;17.38;;
20056;SDS011;10189;49.546;7.906;2024-01-30T10:34:32;13.18;;;9.90;;
20056;SDS011;10189;49.546;7.906;2024-01-30T10:37:08;11.32;;;9.15;;
20056;SDS011;10189;49.546;7.906;2024-01-30T10:39:40;40.03;;;28.20;;
20056;SDS011;10189;49.546;7.906;2024-01-30T10:42:11;11.52;;;8.38;;
20056;SDS011;10189;49.546;7.906;2024-01-30T10:44:51;15.05;;;11.93;;
20056;SDS011;10189;49.546;7.906;2024-01-30T10:47:37;9.93;;;8.05;;
20056;SDS011;10189;49.546;7.906;2024-01-30T10:50:15;35.50;;;28.63;;
20056;SDS011;10189;49.546;7.906;2024-01-30T10:52:41;13.23;;;10.55;;
20056;SDS011;10189;49.546;7.906;2024-01-30T10:55:08;14.88;;;12.23;;
20056;SDS011;10189;49.546;7.906;2024-01-30T10:57:36;10.60;;;8.65;;
20056;SDS011;10189;49.546;7.906;2024-01-30T11:00:12;13.93;;;9.38;;
20056;SDS011;10189;49.546;7.906;2024-01-30T11:02:44;12.77;;;9.30;;
20056;SDS011;10189;49.546;7.906;2024-01-30T11:05:12;12.38;;;9.13;;
20056;SDS011;10189;49.546;7.906;2024-01-30T11:07:40;11.00;;;9.23;;
20056;SDS011;10189;49.546;7.906;2024-01-30T11:10:07;15.38;;;11.30;;
20056;SDS011;10189;49.546;7.906;2024-01-30T11:12:37;12.75;;;8.93;;
20056;SDS011;10189;49.546;7.906;2024-01-30T11:15:12;11.25;;;9.23;;
20056;SDS011;10189;49.546;7.906;2024-01-30T11:20:16;12.27;;;10.32;;
20056;SDS011;10189;49.546;7.906;2024-01-30T11:25:23;11.57;;;8.52;;
20056;SDS011;10189;49.546;7.906;2024-01-30T11:27:51;13.18;;;9.18;;
20056;SDS011;10189;49.546;7.906;2024-01-30T11:30:26;10.15;;;8.75;;
20056;SDS011;10189;49.546;7.906;2024-01-30T11:35:33;14.80;;;9.15;;
20056;SDS011;10189;49.546;7.906;2024-01-30T11:38:01;9.98;;;8.38;;
20056;SDS011;10189;49.546;7.906;2024-01-30T11:40:29;11.10;;;8.80;;
20056;SDS011;10189;49.546;7.906;2024-01-30T11:42:56;10.75;;;8.10;;
20056;SDS011;10189;49.546;7.906;2024-01-30T11:45:26;9.32;;;8.00;;
20056;SDS011;10189;49.546;7.906;2024-01-30T11:47:53;11.15;;;8.48;;
20056;SDS011;10189;49.546;7.906;2024-01-30T11:50:20;11.43;;;8.55;;
20056;SDS011;10189;49.546;7.906;2024-01-30T11:52:46;11.25;;;9.18;;
20056;SDS011;10189;49.546;7.906;2024-01-30T11:55:13;13.15;;;9.32;;
20056;SDS011;10189;49.546;7.906;2024-01-30T11:57:40;11.57;;;8.93;;
20056;SDS011;10189;49.546;7.906;2024-01-30T12:00:13;12.77;;;8.60;;
20056;SDS011;10189;49.546;7.906;2024-01-30T12:02:41;11.80;;;8.90;;
20056;SDS011;10189;49.546;7.906;2024-01-30T12:05:08;11.95;;;8.70;;
20056;SDS011;10189;49.546;7.906;2024-01-30T12:07:34;13.02;;;10.70;;
20056;SDS011;10189;49.546;7.906;2024-01-30T12:10:01;14.60;;;8.80;;
20056;SDS011;10189;49.546;7.906;2024-01-30T12:12:28;12.23;;;9.05;;
20056;SDS011;10189;49.546;7.906;2024-01-30T12:14:55;11.30;;;8.93;;
20056;SDS011;10189;49.546;7.906;2024-01-30T12:17:32;11.25;;;9.20;;
20056;SDS011;10189;49.546;7.906;2024-01-30T12:20:11;16.73;;;10.80;;
20056;SDS011;10189;49.546;7.906;2024-01-30T12:22:40;10.73;;;9.48;;
20056;SDS011;10189;49.546;7.906;2024-01-30T12:25:08;14.18;;;12.52;;
20056;SDS011;10189;49.546;7.906;2024-01-30T12:27:36;12.20;;;9.18;;
20056;SDS011;10189;49.546;7.906;2024-01-30T12:30:10;12.43;;;10.48;;
20056;SDS011;10189;49.546;7.906;2024-01-30T12:32:42;12.95;;;9.25;;
20056;SDS011;10189;49.546;7.906;2024-01-30T12:35:10;12.70;;;9.68;;
20056;SDS011;10189;49.546;7.906;2024-01-30T12:37:37;13.43;;;10.02;;
20056;SDS011;10189;49.546;7.906;2024-01-30T12:40:04;12.40;;;10.07;;
20056;SDS011;10189;49.546;7.906;2024-01-30T12:42:34;13.30;;;9.55;;
20056;SDS011;10189;49.546;7.906;2024-01-30T12:45:04;12.65;;;8.98;;
20056;SDS011;10189;49.546;7.906;2024-01-30T12:47:40;13.85;;;9.25;;
20056;SDS011;10189;49.546;7.906;2024-01-30T12:50:07;13.10;;;10.18;;
20056;SDS011;10189;49.546;7.906;2024-01-30T12:52:33;13.32;;;9.55;;
20056;SDS011;10189;49.546;7.906;2024-01-30T12:55:01;13.15;;;10.25;;
20056;SDS011;10189;49.546;7.906;2024-01-30T12:57:29;12.07;;;9.27;;
20056;SDS011;10189;49.546;7.906;2024-01-30T12:59:55;14.85;;;10.80;;
20056;SDS011;10189;49.546;7.906;2024-01-30T13:02:20;12.82;;;10.15;;
20056;SDS011;10189;49.546;7.906;2024-01-30T13:04:47;12.15;;;9.30;;
20056;SDS011;10189;49.546;7.906;2024-01-30T13:07:13;12.00;;;9.68;;
20056;SDS011;10189;49.546;7.906;2024-01-30T13:09:39;11.63;;;10.02;;
20056;SDS011;10189;49.546;7.906;2024-01-30T13:12:05;15.60;;;11.65;;
20056;SDS011;10189;49.546;7.906;2024-01-30T13:14:32;13.52;;;9.90;;
20056;SDS011;10189;49.546;7.906;2024-01-30T13:16:58;22.08;;;17.25;;
20056;SDS011;10189;49.546;7.906;2024-01-30T13:19:24;18.52;;;14.00;;
20056;SDS011;10189;49.546;7.906;2024-01-30T13:21:50;20.70;;;16.45;;
20056;SDS011;10189;49.546;7.906;2024-01-30T13:24:16;80.10;;;59.15;;
20056;SDS011;10189;49.546;7.906;2024-01-30T13:26:42;19.23;;;14.43;;
20056;SDS011;10189;49.546;7.906;2024-01-30T13:29:09;10.88;;;9.48;;
20056;SDS011;10189;49.546;7.906;2024-01-30T13:31:35;15.80;;;12.20;;
20056;SDS011;10189;49.546;7.906;2024-01-30T13:34:01;17.10;;;11.63;;
20056;SDS011;10189;49.546;7.906;2024-01-30T13:36:27;12.60;;;9.30;;
20056;SDS011;10189;49.546;7.906;2024-01-30T13:38:53;16.45;;;13.20;;
20056;SDS011;10189;49.546;7.906;2024-01-30T13:41:18;12.27;;;10.18;;
20056;SDS011;10189;49.546;7.906;2024-01-30T13:43:45;12.50;;;9.52;;
20056;SDS011;10189;49.546;7.906;2024-01-30T13:46:12;12.95;;;10.13;;
20056;SDS011;10189;49.546;7.906;2024-01-30T13:48:37;13.90;;;8.60;;
20056;SDS011;10189;49.546;7.906;2024-01-30T13:51:03;10.88;;;8.25;;
20056;SDS011;10189;49.546;7.906;2024-01-30T13:53:29;13.85;;;8.90;;
20056;SDS011;10189;49.546;7.906;2024-01-30T13:55:56;11.73;;;8.77;;
20056;SDS011;10189;49.546;7.906;2024-01-30T13:58:21;11.20;;;9.18;;
20056;SDS011;10189;49.546;7.906;2024-01-30T14:00:47;9.57;;;8.25;;
20056;SDS011;10189;49.546;7.906;2024-01-30T14:03:14;10.80;;;8.35;;
20056;SDS011;10189;49.546;7.906;2024-01-30T14:05:40;12.40;;;8.75;;
20056;SDS011;10189;49.546;7.906;2024-01-30T14:08:06;10.73;;;8.20;;
20056;SDS011;10189;49.546;7.906;2024-01-30T14:10:33;16.42;;;9.80;;
20056;SDS011;10189;49.546;7.906;2024-01-30T14:12:59;12.80;;;8.50;;
20056;SDS011;10189;49.546;7.906;2024-01-30T14:15:25;10.70;;;8.88;;
20056;SDS011;10189;49.546;7.906;2024-01-30T14:17:51;12.07;;;8.48;;
20056;SDS011;10189;49.546;7.906;2024-01-30T14:20:17;11.52;;;7.97;;
20056;SDS011;10189;49.546;7.906;2024-01-30T14:22:43;12.02;;;8.50;;
20056;SDS011;10189;49.546;7.906;2024-01-30T14:25:09;15.35;;;8.95;;
20056;SDS011;10189;49.546;7.906;2024-01-30T14:27:35;12.25;;;8.40;;
20056;SDS011;10189;49.546;7.906;2024-01-30T14:30:02;14.05;;;8.68;;
20056;SDS011;10189;49.546;7.906;2024-01-30T14:32:28;10.95;;;8.27;;